This is the latest recevied weather packets stored in our database for station/object DB7GV-8. If no packets are shown the sender has not sent any weather packets the latest 10 day(s).
| Time | Temp. | Humidity | Pressure | Rain* | Wind** | Luminosity | Snow |
|---|---|---|---|---|---|---|---|
| 1778148622 | 17.22° C | 63% | 1015.8 hPa | - | - | - | - |
| 1778147717 | 16.11° C | 68% | 1015.9 hPa | - | - | - | - |
| 1778145907 | 15° C | 74% | 1015.8 hPa | - | - | - | - |
| 1778145000 | 15° C | 76% | 1015.7 hPa | - | - | - | - |
| 1778144095 | 14.44° C | 82% | 1015.6 hPa | - | - | - | - |
| 1778143190 | 12.78° C | 85% | 1015.6 hPa | - | - | - | - |
| 1778142285 | 12.78° C | 88% | 1015.5 hPa | - | - | - | - |
| 1778141379 | 12.22° C | 90% | 1015.5 hPa | - | - | - | - |
| 1778140474 | 12.22° C | 91% | 1015.4 hPa | - | - | - | - |
| 1778139569 | 11.11° C | 92% | 1015.4 hPa | - | - | - | - |
| 1778138663 | 10.56° C | 92% | 1015.4 hPa | - | - | - | - |
| 1778137757 | 11.11° C | 93% | 1015.2 hPa | - | - | - | - |
| 1778136852 | 11.11° C | 94% | 1015.1 hPa | - | - | - | - |
| 1778135947 | 10.56° C | 95% | 1015 hPa | - | - | - | - |
| 1778135041 | 10° C | 96% | 1015 hPa | - | - | - | - |
| 1778134136 | 10° C | 96% | 1014.9 hPa | - | - | - | - |
| 1778133231 | 9.44° C | 97% | 1014.8 hPa | - | - | - | - |
| 1778132325 | 9.44° C | 97% | 1014.7 hPa | - | - | - | - |
| 1778131420 | 8.89° C | 97% | 1014.5 hPa | - | - | - | - |
| 1778130514 | 8.89° C | 97% | 1014.3 hPa | - | - | - | - |
| 1778129608 | 8.89° C | 96% | 1014.1 hPa | - | - | - | - |
| 1778128703 | 8.33° C | 96% | 1014 hPa | - | - | - | - |
| 1778127798 | 8.33° C | 96% | 1013.9 hPa | - | - | - | - |
| 1778126893 | 8.33° C | 95% | 1013.9 hPa | - | - | - | - |
| 1778125987 | 8.33° C | 94% | 1013.8 hPa | - | - | - | - |
* Rain since midnight (hover to see other rain measurements)
** Current wind speed in m/s (hover to see current wind gust speed)